map of KACJ home
KACJ - Airport
Location
City:  Americus, Georgia, United States
Name:Jimmy Carter Regional
ICAO:KACJ
FAA LID:ACJ

Details
Type:Airport (Airfield)
Use:Public/Civil
Latitude:3206'39"N (32.110806)
Longitude:8411'20"W (-84.188860)
Datum:WGS 1984
Elevation:468 ft (143 m)
Variation:5.09W (WMM2015v2 magnetic declination)
-0.06 annual change
Runways:2
Longest:6011 × 100 ft (1832 × 30.5 m), paved

Time
Time Zone:UTC-5 (DST-4)
Local Time:

Weather
METAR:KACJ 041350Z AUTO 00000KT 5SM BR OVC003 13/12 A3013 RMK AO2

Related Locations
Nearby:
Farthest:MQZ: 11319 mi / 18216 km
Margaret River [Margaret River Airport], WA, AU

Find:

   beyond  
but within

Other Information
Maps:
NOTAMs:
Links:
Sources:

  
  • flag of United States
  • flag of Georgia
  

Sectional Chart

Flight Planning
at skyvector.com

Satellite Image

Google Maps Satellite view

 

Copyright © 2004-2019 Karl L. Swartz. All rights reserved.
The Great Circle Mapper name and logo are trademarks of the Great Circle Mapper.
All other trademarks mentioned herein belong to their respective owners.
Please see credits for attibutions and further copyright information.

  Follow gcmap on Facebook Follow gcmap on Twitter GCmap on LinkedIn

hCard Microformat

Geo Microformat